createdAt,value
2023-03-21T00:04:44.552Z,100146.88
2023-03-21T00:10:29.754Z,100147.16
2023-03-21T00:16:26.364Z,100146.72
2023-03-21T00:28:05.133Z,100125.59
2023-03-21T00:33:34.887Z,100126.47
2023-03-21T00:39:06.465Z,100120.34
2023-03-21T00:44:37.175Z,100116.06
2023-03-21T00:50:05.242Z,100116.91
2023-03-21T00:55:32.839Z,100118.50
2023-03-21T01:01:02.770Z,100112.47
2023-03-21T01:06:31.355Z,100105.88
2023-03-21T01:11:58.839Z,100119.41
2023-03-21T01:17:26.582Z,100137.03
2023-03-21T01:22:54.141Z,100129.34
2023-03-21T01:28:22.332Z,100116.50
2023-03-21T01:33:49.871Z,100103.78
2023-03-21T01:39:17.611Z,100098.22
2023-03-21T01:45:01.456Z,100095.19
2023-03-21T01:50:38.132Z,100093.63
2023-03-21T01:56:32.865Z,100104.78
2023-03-21T02:02:10.299Z,100101.22
2023-03-21T02:07:46.172Z,100102.38
2023-03-21T02:13:18.583Z,100118.34
2023-03-21T02:19:31.933Z,100109.81
2023-03-21T02:25:27.632Z,100114.63
2023-03-21T02:31:17.419Z,100116.91
2023-03-21T02:36:51.890Z,100114.94
2023-03-21T02:42:44.975Z,100112.38
2023-03-21T02:48:33.140Z,100118.94
2023-03-21T02:54:45.256Z,100120.09
2023-03-21T03:00:07.709Z,100120.38
2023-03-21T03:05:49.601Z,100118.47
2023-03-21T03:11:36.915Z,100115.94
2023-03-21T03:17:10.007Z,100125.78
2023-03-21T03:23:11.831Z,100123.38
2023-03-21T03:28:55.097Z,100128.50
2023-03-21T03:34:26.707Z,100120.66
2023-03-21T03:40:07.249Z,100134.19
2023-03-21T03:45:54.150Z,100128.16
2023-03-21T03:51:51.342Z,100121.66
2023-03-21T03:57:41.241Z,100117.94
2023-03-21T04:03:10.107Z,100132.78
2023-03-21T04:08:38.086Z,100135.50
2023-03-21T04:14:06.068Z,100140.91
2023-03-21T04:19:34.274Z,100137.63
2023-03-21T04:25:02.088Z,100133.91
2023-03-21T04:30:34.384Z,100141.19
2023-03-21T04:36:25.196Z,100136.63
2023-03-21T04:41:55.513Z,100144.59
2023-03-21T04:47:23.211Z,100147.47
2023-03-21T04:52:50.904Z,100149.59
2023-03-21T04:58:20.584Z,100148.03
2023-03-21T05:03:48.574Z,100147.19
2023-03-21T05:09:16.292Z,100146.91
2023-03-21T05:14:44.723Z,100149.97
2023-03-21T05:20:12.174Z,100155.44
2023-03-21T05:25:40.600Z,100156.00
2023-03-21T05:31:19.267Z,100158.59
2023-03-21T05:36:50.348Z,100162.31
2023-03-21T05:42:19.052Z,100169.00
2023-03-21T05:47:47.444Z,100169.47
2023-03-21T05:53:15.209Z,100169.72
2023-03-21T05:58:42.379Z,100169.69
2023-03-21T06:04:11.813Z,100181.22
2023-03-21T06:09:40.481Z,100181.69
2023-03-21T06:15:09.178Z,100186.53
2023-03-21T06:20:45.107Z,100185.75
2023-03-21T06:26:13.409Z,100185.00
2023-03-21T06:31:41.520Z,100185.25
2023-03-21T06:37:09.635Z,100180.66
2023-03-21T06:42:38.352Z,100185.13
2023-03-21T06:48:11.614Z,100190.16
2023-03-21T06:53:57.437Z,100195.75
2023-03-21T06:59:36.678Z,100202.19
2023-03-21T07:05:19.814Z,100207.78
2023-03-21T07:10:47.898Z,100214.59
2023-03-21T07:16:18.323Z,100221.25
2023-03-21T07:21:46.034Z,100219.28
2023-03-21T07:27:13.538Z,100225.00
2023-03-21T07:32:41.259Z,100228.69
2023-03-21T07:38:08.763Z,100238.56
2023-03-21T07:43:39.184Z,100231.25
2023-03-21T07:49:10.516Z,100234.31
2023-03-21T07:54:38.893Z,100242.66
2023-03-21T08:00:07.682Z,100235.31
2023-03-21T08:05:40.909Z,100247.84
2023-03-21T08:11:09.113Z,100247.00
2023-03-21T08:16:36.953Z,100244.81
2023-03-21T08:22:07.515Z,100246.31
2023-03-21T08:27:35.527Z,100242.53
2023-03-21T08:33:03.150Z,100250.41
2023-03-21T08:38:33.620Z,100253.59
2023-03-21T08:44:00.876Z,100252.47
2023-03-21T08:49:29.009Z,100256.41
2023-03-21T08:54:56.878Z,100264.41
2023-03-21T09:00:24.298Z,100266.19
2023-03-21T09:05:54.341Z,100278.13
2023-03-21T09:11:22.062Z,100275.25
2023-03-21T09:16:50.258Z,100284.31
2023-03-21T09:22:18.188Z,100281.72
2023-03-21T09:27:46.452Z,100287.38
2023-03-21T09:33:19.833Z,100288.38
2023-03-21T09:38:47.700Z,100282.81
2023-03-21T09:44:21.857Z,100282.28
2023-03-21T09:50:20.735Z,100278.09
2023-03-21T09:55:48.391Z,100283.72
2023-03-21T10:01:42.268Z,100281.06
2023-03-21T10:07:20.892Z,100281.03
2023-03-21T10:12:50.060Z,100275.28
2023-03-21T10:18:25.318Z,100274.09
2023-03-21T10:23:56.274Z,100274.94
2023-03-21T10:29:31.924Z,100269.81
2023-03-21T10:35:02.267Z,100279.19
2023-03-21T10:40:30.844Z,100270.44
2023-03-21T10:45:58.593Z,100273.16
2023-03-21T10:51:31.289Z,100273.44
2023-03-21T10:57:06.782Z,100277.47
2023-03-21T11:02:38.390Z,100277.19
2023-03-21T11:08:17.531Z,100272.94
2023-03-21T11:13:45.503Z,100257.81
2023-03-21T11:19:16.734Z,100260.13
2023-03-21T11:24:51.685Z,100258.00
2023-03-21T11:30:27.358Z,100260.22
2023-03-21T11:36:00.574Z,100248.16
2023-03-21T11:41:32.904Z,100244.91
2023-03-21T11:47:01.077Z,100246.53
2023-03-21T11:52:44.350Z,100238.69
2023-03-21T11:58:15.208Z,100235.09
2023-03-21T12:04:04.716Z,100230.91
2023-03-21T12:09:44.101Z,100240.22
2023-03-21T12:15:29.814Z,100220.59
2023-03-21T12:21:25.956Z,100217.03
2023-03-21T12:27:16.495Z,100208.47
2023-03-21T12:32:44.751Z,100209.56
2023-03-21T12:38:26.386Z,100197.31
2023-03-21T12:44:16.301Z,100189.56
2023-03-21T12:50:09.764Z,100184.09
2023-03-21T12:55:39.825Z,100176.22
2023-03-21T13:01:12.566Z,100173.22
2023-03-21T13:06:41.555Z,100168.31
2023-03-21T13:12:42.670Z,100165.66
2023-03-21T13:18:27.767Z,100161.38
2023-03-21T13:24:03.324Z,100149.69
2023-03-21T13:29:53.952Z,100148.94
2023-03-21T13:35:41.416Z,100132.34
2023-03-21T13:41:18.016Z,100135.50
2023-03-21T13:47:03.406Z,100133.25
2023-03-21T13:52:31.935Z,100123.06
2023-03-21T13:57:59.588Z,100133.16
2023-03-21T14:03:33.598Z,100128.22
2023-03-21T14:09:04.103Z,100126.94
2023-03-21T14:14:40.708Z,100124.97
2023-03-21T14:20:18.837Z,100116.13
2023-03-21T14:25:52.272Z,100116.88
2023-03-21T14:31:21.436Z,100118.78
2023-03-21T14:36:57.667Z,100106.16
2023-03-21T14:42:27.277Z,100101.97
2023-03-21T14:48:06.400Z,100095.50
2023-03-21T14:53:38.581Z,100095.91
2023-03-21T14:59:05.946Z,100089.41
2023-03-21T15:04:35.824Z,100083.59
2023-03-21T15:10:07.790Z,100080.84
2023-03-21T15:15:37.534Z,100072.19
2023-03-21T15:21:13.771Z,100082.41
2023-03-21T15:26:47.093Z,100085.94
2023-03-21T15:32:24.394Z,100091.31
2023-03-21T15:37:56.065Z,100078.03
2023-03-21T15:43:25.990Z,100074.03
2023-03-21T15:49:13.765Z,100068.38
2023-03-21T15:54:48.897Z,100065.44
2023-03-21T16:00:18.644Z,100064.69
2023-03-21T16:06:26.006Z,100060.66
2023-03-21T16:12:00.108Z,100066.00
2023-03-21T16:17:38.078Z,100058.53
2023-03-21T16:23:06.116Z,100066.50
2023-03-21T16:28:33.015Z,100071.91
2023-03-21T16:34:01.941Z,100079.03
2023-03-21T16:39:29.028Z,100075.38
2023-03-21T16:44:57.346Z,100068.56
2023-03-21T16:50:37.964Z,100070.53
2023-03-21T16:56:06.349Z,100074.06
2023-03-21T17:01:39.765Z,100075.19
2023-03-21T17:07:18.269Z,100073.31
2023-03-21T17:12:46.152Z,100074.47
2023-03-21T17:18:13.393Z,100079.38
2023-03-21T17:23:40.982Z,100077.16
2023-03-21T17:29:10.964Z,100071.00
2023-03-21T17:34:38.078Z,100060.00
2023-03-21T17:40:12.623Z,100067.44
2023-03-21T17:45:40.666Z,100075.88
2023-03-21T17:51:12.971Z,100082.00
2023-03-21T17:56:41.899Z,100076.63
2023-03-21T18:02:09.285Z,100087.66
2023-03-21T18:08:07.831Z,100082.59
2023-03-21T18:13:25.401Z,100086.38
2023-03-21T18:18:54.162Z,100087.53
2023-03-21T18:24:21.701Z,100091.13
2023-03-21T18:30:28.798Z,100090.69
2023-03-21T18:35:37.325Z,100089.69
2023-03-21T18:41:05.517Z,100084.88
2023-03-21T18:46:33.719Z,100085.47
2023-03-21T18:52:02.059Z,100082.22
2023-03-21T18:57:37.051Z,100078.03
2023-03-21T19:03:18.775Z,100074.69
2023-03-21T19:08:46.892Z,100065.88
2023-03-21T19:14:16.464Z,100066.41
2023-03-21T19:19:43.952Z,100061.00
2023-03-21T19:25:13.233Z,100066.56
2023-03-21T19:30:49.862Z,100069.66
2023-03-21T19:36:22.507Z,100055.66
2023-03-21T19:41:51.640Z,100064.09
2023-03-21T19:47:21.581Z,100058.50
2023-03-21T19:52:50.452Z,100054.63
2023-03-21T19:58:22.754Z,100055.63
2023-03-21T20:03:50.925Z,100061.44
2023-03-21T20:15:17.035Z,100060.16
2023-03-21T20:20:45.658Z,100043.91
2023-03-21T20:26:14.920Z,100045.25
2023-03-21T20:31:42.757Z,100039.78
2023-03-21T20:37:12.548Z,100050.56
2023-03-21T20:42:41.060Z,100047.94
2023-03-21T20:48:09.177Z,100041.22
2023-03-21T20:53:37.699Z,100028.59
2023-03-21T20:59:17.346Z,100035.16
2023-03-21T21:05:21.539Z,100033.94
2023-03-21T21:11:02.717Z,100030.97
2023-03-21T21:16:28.146Z,100028.88
2023-03-21T21:21:55.990Z,100016.31
2023-03-21T21:27:24.014Z,100001.94
2023-03-21T21:32:52.174Z,100009.19
2023-03-21T21:38:21.143Z,100010.78
2023-03-21T21:43:49.403Z,100007.34
2023-03-21T21:49:17.103Z,100011.78
2023-03-21T21:54:46.135Z,100012.38
2023-03-21T22:00:14.769Z,100011.66
2023-03-21T22:05:44.547Z,100011.50
2023-03-21T22:11:12.278Z,100016.06
2023-03-21T22:16:39.851Z,100002.09
2023-03-21T22:22:06.912Z,99995.81
2023-03-21T22:27:34.341Z,99999.53
2023-03-21T22:33:09.345Z,99992.84
2023-03-21T22:38:38.353Z,99982.41
2023-03-21T22:44:06.201Z,99982.28
2023-03-21T22:49:34.509Z,99986.72
2023-03-21T22:55:02.078Z,99979.28
2023-03-21T23:00:29.414Z,99982.00
2023-03-21T23:06:00.700Z,99972.88
2023-03-21T23:11:27.910Z,99972.72
2023-03-21T23:16:55.150Z,99965.47
2023-03-21T23:22:22.435Z,99966.31
2023-03-21T23:27:51.075Z,99963.72
2023-03-21T23:33:17.990Z,99966.91
2023-03-21T23:38:46.121Z,99969.31
2023-03-21T23:44:13.384Z,99968.88
2023-03-21T23:49:41.119Z,99967.03
2023-03-21T23:55:09.053Z,99957.06
